createdAt,value
2024-04-24T00:02:20.321Z,4.41
2024-04-24T00:04:47.784Z,4.43
2024-04-24T00:07:15.855Z,4.46
2024-04-24T00:09:42.757Z,4.48
2024-04-24T00:12:10.398Z,4.51
2024-04-24T00:14:37.606Z,4.52
2024-04-24T00:17:05.339Z,4.54
2024-04-24T00:19:32.197Z,4.57
2024-04-24T00:21:59.137Z,4.58
2024-04-24T00:24:26.243Z,4.58
2024-04-24T00:26:53.286Z,4.59
2024-04-24T00:29:20.332Z,4.60
2024-04-24T00:31:47.300Z,4.61
2024-04-24T00:34:14.388Z,4.61
2024-04-24T00:36:41.376Z,4.59
2024-04-24T00:39:08.382Z,4.57
2024-04-24T00:41:35.237Z,4.55
2024-04-24T00:44:02.390Z,4.54
2024-04-24T00:46:33.628Z,4.52
2024-04-24T00:49:02.132Z,4.49
2024-04-24T00:51:31.426Z,4.48
2024-04-24T00:53:58.488Z,4.47
2024-04-24T00:56:25.558Z,4.46
2024-04-24T00:58:53.811Z,4.46
2024-04-24T01:01:22.515Z,4.44
2024-04-24T01:03:50.570Z,4.42
2024-04-24T01:06:17.515Z,4.41
2024-04-24T01:08:44.826Z,4.41
2024-04-24T01:11:12.005Z,4.37
2024-04-24T01:13:38.950Z,4.35
2024-04-24T01:16:10.988Z,4.35
2024-04-24T01:18:42.212Z,4.34
2024-04-24T01:21:10.938Z,4.30
2024-04-24T01:23:44.418Z,4.26
2024-04-24T01:26:15.764Z,4.23
2024-04-24T01:28:43.025Z,4.23
2024-04-24T01:31:10.183Z,4.22
2024-04-24T01:33:37.215Z,4.22
2024-04-24T01:36:04.596Z,4.18
2024-04-24T01:38:31.468Z,4.15
2024-04-24T01:40:59.572Z,4.11
2024-04-24T01:43:26.434Z,4.07
2024-04-24T01:45:53.388Z,4.04
2024-04-24T01:48:20.354Z,4.03
2024-04-24T01:50:47.589Z,4.00
2024-04-24T01:53:14.792Z,3.96
2024-04-24T01:55:41.942Z,3.89
2024-04-24T01:58:09.287Z,3.87
2024-04-24T02:00:36.304Z,3.84
2024-04-24T02:03:03.441Z,3.81
2024-04-24T02:05:30.567Z,3.78
2024-04-24T02:07:57.592Z,3.74
2024-04-24T02:10:24.689Z,3.72
2024-04-24T02:12:51.668Z,3.70
2024-04-24T02:15:18.813Z,3.68
2024-04-24T02:17:46.074Z,3.67
2024-04-24T02:20:13.670Z,3.63
2024-04-24T02:22:40.799Z,3.59
2024-04-24T02:25:26.378Z,3.56
2024-04-24T02:27:53.227Z,3.54
2024-04-24T02:30:20.222Z,3.52
2024-04-24T02:32:47.619Z,3.51
2024-04-24T02:35:14.828Z,3.51
2024-04-24T02:37:42.166Z,3.50
2024-04-24T02:40:10.865Z,3.50
2024-04-24T02:42:38.215Z,3.49
2024-04-24T02:45:05.479Z,3.47
2024-04-24T02:47:32.721Z,3.48
2024-04-24T02:49:59.744Z,3.47
2024-04-24T02:52:26.633Z,3.45
2024-04-24T02:54:53.859Z,3.44
2024-04-24T02:57:20.985Z,3.43
2024-04-24T02:59:47.966Z,3.42
2024-04-24T03:02:14.771Z,3.41
2024-04-24T03:04:41.858Z,3.39
2024-04-24T03:07:09.271Z,3.37
2024-04-24T03:09:36.627Z,3.36
2024-04-24T03:12:03.564Z,3.36
2024-04-24T03:14:30.577Z,3.37
2024-04-24T03:16:57.833Z,3.38
2024-04-24T03:19:24.832Z,3.38
2024-04-24T03:21:51.886Z,3.36
2024-04-24T03:24:18.975Z,3.35
2024-04-24T03:26:45.922Z,3.33
2024-04-24T03:29:12.834Z,3.32
2024-04-24T03:31:39.783Z,3.32
2024-04-24T03:34:06.645Z,3.30
2024-04-24T03:36:34.007Z,3.30
2024-04-24T03:39:01.238Z,3.29
2024-04-24T03:41:28.218Z,3.30
2024-04-24T03:43:54.994Z,3.31
2024-04-24T03:46:21.779Z,3.32
2024-04-24T03:48:48.539Z,3.35
2024-04-24T03:51:15.301Z,3.37
2024-04-24T03:53:42.530Z,3.38
2024-04-24T03:56:10.064Z,3.40
2024-04-24T03:58:37.220Z,3.41
2024-04-24T04:01:04.415Z,3.41
2024-04-24T04:03:31.847Z,3.41
2024-04-24T04:05:58.992Z,3.42
2024-04-24T04:08:25.936Z,3.43
2024-04-24T04:10:53.245Z,3.45
2024-04-24T04:13:20.378Z,3.47
2024-04-24T04:15:47.132Z,3.51
2024-04-24T04:18:14.022Z,3.54
2024-04-24T04:20:41.029Z,3.58
2024-04-24T04:23:08.210Z,3.63
2024-04-24T04:25:35.384Z,3.64
2024-04-24T04:28:02.747Z,3.69
2024-04-24T04:30:29.663Z,3.73
2024-04-24T04:32:56.848Z,3.78
2024-04-24T04:35:24.023Z,3.81
2024-04-24T04:37:51.012Z,3.84
2024-04-24T04:40:18.081Z,3.92
2024-04-24T04:42:45.425Z,3.96
2024-04-24T04:45:13.003Z,4.00
2024-04-24T04:47:40.012Z,4.02
2024-04-24T04:50:08.283Z,4.05
2024-04-24T04:52:35.249Z,4.08
2024-04-24T04:55:03.519Z,4.11
2024-04-24T04:57:30.677Z,4.13
2024-04-24T04:59:57.820Z,4.13
2024-04-24T05:02:25.081Z,4.14
2024-04-24T05:04:52.263Z,4.18
2024-04-24T05:07:19.023Z,4.21
2024-04-24T05:09:46.009Z,4.22
2024-04-24T05:12:13.108Z,4.24
2024-04-24T05:14:40.213Z,4.27
2024-04-24T05:17:09.489Z,4.31
2024-04-24T05:19:36.350Z,4.35
2024-04-24T05:22:03.306Z,4.38
2024-04-24T05:24:30.288Z,4.43
2024-04-24T05:27:15.031Z,4.45
2024-04-24T05:29:41.849Z,4.48
2024-04-24T05:32:08.687Z,4.49
2024-04-24T05:34:35.386Z,4.52
2024-04-24T05:37:02.227Z,4.56
2024-04-24T05:39:29.123Z,4.60
2024-04-24T05:41:56.177Z,4.62
2024-04-24T05:44:24.833Z,4.60
2024-04-24T05:46:51.803Z,4.59
2024-04-24T05:49:18.866Z,4.58
2024-04-24T05:51:45.567Z,4.58
2024-04-24T05:54:12.223Z,4.58
2024-04-24T05:56:39.007Z,4.59
2024-04-24T05:59:05.812Z,4.64
2024-04-24T06:01:32.584Z,4.66
2024-04-24T06:03:59.333Z,4.72
2024-04-24T06:06:26.111Z,4.76
2024-04-24T06:08:52.817Z,4.80
2024-04-24T06:11:19.968Z,4.85
2024-04-24T06:13:47.025Z,4.91
2024-04-24T06:16:14.539Z,4.99
2024-04-24T06:18:41.861Z,5.04
2024-04-24T06:21:09.319Z,5.11
2024-04-24T06:23:36.434Z,5.18
2024-04-24T06:26:03.567Z,5.21
2024-04-24T06:28:30.646Z,5.26
2024-04-24T06:30:57.738Z,5.29
2024-04-24T06:33:24.727Z,5.31
2024-04-24T06:35:51.619Z,5.34
2024-04-24T06:38:20.521Z,5.40
2024-04-24T06:40:47.514Z,5.46
2024-04-24T06:43:14.270Z,5.53
2024-04-24T06:45:41.237Z,5.61
2024-04-24T06:48:09.393Z,5.65
2024-04-24T06:50:36.756Z,5.71
2024-04-24T06:53:03.961Z,5.77
2024-04-24T06:55:32.218Z,5.81
2024-04-24T06:58:00.833Z,5.83
2024-04-24T07:00:31.229Z,5.88
2024-04-24T07:02:58.304Z,5.96
2024-04-24T07:05:25.276Z,6.02
2024-04-24T07:07:52.279Z,6.11
2024-04-24T07:10:19.323Z,6.20
2024-04-24T07:12:48.915Z,6.30
2024-04-24T07:15:16.975Z,6.39
2024-04-24T07:17:44.194Z,6.45
2024-04-24T07:20:12.096Z,6.51
2024-04-24T07:22:39.343Z,6.58
2024-04-24T07:25:07.249Z,6.74
2024-04-24T07:27:34.803Z,6.93
2024-04-24T07:30:03.390Z,7.11
2024-04-24T07:32:30.653Z,7.26
2024-04-24T07:34:57.790Z,7.46
2024-04-24T07:37:25.499Z,7.66
2024-04-24T07:39:52.702Z,7.80
2024-04-24T07:42:19.644Z,8.01
2024-04-24T07:44:46.466Z,8.24
2024-04-24T07:47:13.910Z,8.60
2024-04-24T07:49:41.587Z,8.96
2024-04-24T07:52:08.870Z,9.39
2024-04-24T07:54:36.787Z,10.03
2024-04-24T07:57:03.941Z,10.65
2024-04-24T07:59:31.105Z,11.17
2024-04-24T08:01:58.678Z,11.57
2024-04-24T08:04:25.922Z,12.08
2024-04-24T08:06:52.963Z,12.67
2024-04-24T08:09:20.262Z,13.14
2024-04-24T08:11:47.569Z,13.39
2024-04-24T08:14:15.695Z,13.43
2024-04-24T08:16:42.666Z,13.27
2024-04-24T08:19:10.119Z,13.13
2024-04-24T08:21:37.406Z,12.90
2024-04-24T08:24:04.320Z,12.70
2024-04-24T08:26:31.520Z,12.58
2024-04-24T08:28:58.358Z,12.52
2024-04-24T08:31:25.431Z,12.44
2024-04-24T08:33:52.548Z,12.32
2024-04-24T08:36:19.566Z,12.22
2024-04-24T08:38:46.778Z,12.13
2024-04-24T08:41:14.453Z,12.01
2024-04-24T08:43:42.479Z,11.92
2024-04-24T08:46:11.754Z,11.90
2024-04-24T08:48:41.176Z,11.93
2024-04-24T08:51:09.726Z,12.00
2024-04-24T08:53:38.268Z,12.18
2024-04-24T08:56:09.544Z,12.39
2024-04-24T08:58:39.753Z,12.52
2024-04-24T09:01:10.391Z,12.73
2024-04-24T09:03:41.775Z,12.97
2024-04-24T09:06:11.472Z,13.33
2024-04-24T09:08:39.469Z,13.71
2024-04-24T09:11:07.973Z,14.21
2024-04-24T09:13:36.269Z,14.75
2024-04-24T09:16:05.954Z,15.53
2024-04-24T09:18:32.890Z,16.66
2024-04-24T09:21:01.068Z,17.73
2024-04-24T09:23:27.983Z,18.51
2024-04-24T09:25:54.791Z,18.97
2024-04-24T09:28:21.488Z,19.27
2024-04-24T09:30:52.715Z,19.58
2024-04-24T09:33:19.710Z,19.89
2024-04-24T09:35:47.242Z,19.92
2024-04-24T09:38:15.267Z,19.57
2024-04-24T09:40:42.178Z,19.12
2024-04-24T09:43:09.300Z,18.71
2024-04-24T09:45:36.332Z,18.38
2024-04-24T09:48:05.122Z,17.97
2024-04-24T09:50:35.877Z,17.56
2024-04-24T09:53:03.476Z,17.15
2024-04-24T09:55:39.468Z,16.80
2024-04-24T09:58:09.232Z,16.39
2024-04-24T10:00:37.849Z,16.07
2024-04-24T10:03:11.984Z,15.80
2024-04-24T10:05:47.824Z,15.53
2024-04-24T10:08:30.954Z,15.17
2024-04-24T10:10:59.958Z,14.88
2024-04-24T10:13:34.331Z,14.66
2024-04-24T10:16:03.241Z,14.44
2024-04-24T10:18:31.040Z,14.15
2024-04-24T10:20:59.625Z,13.96
2024-04-24T10:23:29.008Z,13.79
2024-04-24T10:25:57.376Z,13.53
2024-04-24T10:28:25.881Z,13.31
2024-04-24T10:30:54.295Z,13.19
2024-04-24T10:33:22.163Z,13.08
2024-04-24T10:35:49.824Z,13.03
2024-04-24T10:38:17.536Z,13.06
2024-04-24T10:40:50.496Z,13.09
2024-04-24T10:43:18.952Z,13.10
2024-04-24T10:45:46.086Z,13.12
2024-04-24T10:48:14.480Z,13.08
2024-04-24T10:50:42.803Z,13.08
2024-04-24T10:53:14.343Z,13.08
2024-04-24T10:55:51.542Z,13.15
2024-04-24T10:58:23.926Z,13.23
2024-04-24T11:00:51.126Z,13.22
2024-04-24T11:03:18.458Z,13.18
2024-04-24T11:05:45.674Z,13.11
2024-04-24T11:08:20.868Z,13.09
2024-04-24T11:10:52.691Z,13.11
2024-04-24T11:13:19.867Z,13.01
2024-04-24T11:15:54.542Z,12.92
2024-04-24T11:18:28.359Z,12.86
2024-04-24T11:20:55.633Z,12.75
2024-04-24T11:23:22.598Z,12.68
2024-04-24T11:25:58.906Z,12.62
2024-04-24T11:28:27.244Z,12.61
2024-04-24T11:30:54.338Z,12.60
2024-04-24T11:33:23.071Z,12.53
2024-04-24T11:35:50.375Z,12.44
2024-04-24T11:38:17.259Z,12.32
2024-04-24T11:40:45.493Z,12.18
2024-04-24T11:43:12.525Z,12.07
2024-04-24T11:45:40.329Z,12.03
2024-04-24T11:48:09.113Z,12.02
2024-04-24T11:50:37.056Z,11.98
2024-04-24T11:53:04.978Z,12.02
2024-04-24T11:55:35.320Z,12.05
2024-04-24T11:58:09.963Z,12.05
2024-04-24T12:00:42.541Z,12.00
2024-04-24T12:03:09.870Z,11.94
2024-04-24T12:05:37.241Z,11.92
2024-04-24T12:08:04.570Z,11.92
2024-04-24T12:10:31.878Z,11.84
2024-04-24T12:12:59.120Z,11.77
2024-04-24T12:15:26.375Z,11.66
2024-04-24T12:17:53.445Z,11.57
2024-04-24T12:20:20.508Z,11.55
2024-04-24T12:22:47.286Z,11.54
2024-04-24T12:25:14.095Z,11.52
2024-04-24T12:27:41.164Z,11.43
2024-04-24T12:30:09.742Z,11.34
2024-04-24T12:32:38.028Z,11.26
2024-04-24T12:35:05.519Z,11.17
2024-04-24T12:37:34.780Z,11.11
2024-04-24T12:40:03.085Z,11.08
2024-04-24T12:42:30.202Z,11.01
2024-04-24T12:44:57.131Z,11.01
2024-04-24T12:47:24.275Z,10.99
2024-04-24T12:49:52.695Z,10.94
2024-04-24T12:52:19.897Z,10.92
2024-04-24T12:54:46.739Z,10.87
2024-04-24T12:57:13.874Z,10.78
2024-04-24T12:59:41.056Z,10.68
2024-04-24T13:02:08.297Z,10.59
2024-04-24T13:04:35.368Z,10.53
2024-04-24T13:07:02.579Z,10.47
2024-04-24T13:09:29.522Z,10.38
2024-04-24T13:11:56.569Z,10.28
2024-04-24T13:14:23.905Z,10.20
2024-04-24T13:16:51.752Z,10.16
2024-04-24T13:19:19.200Z,10.12
2024-04-24T13:21:46.688Z,10.08
2024-04-24T13:24:17.438Z,10.02
2024-04-24T13:26:47.678Z,9.99
2024-04-24T13:29:14.955Z,10.00
2024-04-24T13:31:42.243Z,9.98
2024-04-24T13:34:09.324Z,9.93
2024-04-24T13:36:36.281Z,9.86
2024-04-24T13:39:03.914Z,9.79
2024-04-24T13:41:36.325Z,9.73
2024-04-24T13:44:05.617Z,9.68
2024-04-24T13:46:32.987Z,9.64
2024-04-24T13:48:59.886Z,9.61
2024-04-24T13:51:26.780Z,9.62
2024-04-24T13:53:53.621Z,9.64
2024-04-24T13:56:20.380Z,9.65
2024-04-24T13:58:47.217Z,9.67
2024-04-24T16:16:38.032Z,9.97
2024-04-24T16:19:06.383Z,9.89
2024-04-24T16:21:33.283Z,9.78
2024-04-24T16:23:59.969Z,9.69
2024-04-24T16:26:26.828Z,9.61
2024-04-24T16:28:54.071Z,9.55
2024-04-24T16:31:20.806Z,9.49
2024-04-24T16:33:48.186Z,9.43
2024-04-24T16:36:15.090Z,9.38
2024-04-24T16:38:42.072Z,9.36
2024-04-24T16:41:18.165Z,9.34
2024-04-24T16:43:49.549Z,9.32
2024-04-24T16:46:18.352Z,9.30
2024-04-24T16:48:45.161Z,9.30
2024-04-24T16:51:12.051Z,9.31
2024-04-24T16:53:38.800Z,9.31
2024-04-24T16:56:07.213Z,9.29
2024-04-24T16:58:33.977Z,9.27
2024-04-24T17:01:01.046Z,9.23
2024-04-24T17:03:28.025Z,9.18
2024-04-24T17:05:55.414Z,9.15
2024-04-24T17:08:22.095Z,9.08
2024-04-24T17:10:48.962Z,9.04
2024-04-24T17:13:15.752Z,9.01
2024-04-24T17:15:43.084Z,8.97
2024-04-24T17:18:10.149Z,8.92
2024-04-24T17:20:37.063Z,8.88
2024-04-24T17:23:03.955Z,8.84
2024-04-24T17:25:30.716Z,8.81
2024-04-24T17:27:57.702Z,8.75
2024-04-24T17:30:24.406Z,8.70
2024-04-24T17:32:51.915Z,8.66
2024-04-24T17:35:19.124Z,8.62
2024-04-24T17:37:45.900Z,8.59
2024-04-24T17:40:13.310Z,8.59
2024-04-24T17:42:40.904Z,8.56
2024-04-24T17:45:09.011Z,8.54
2024-04-24T17:47:36.103Z,8.54
2024-04-24T17:50:04.097Z,8.53
2024-04-24T17:52:32.539Z,8.52
2024-04-24T17:54:59.308Z,8.52
2024-04-24T17:57:27.042Z,8.50
2024-04-24T17:59:53.884Z,8.48
2024-04-24T18:02:20.682Z,8.47
2024-04-24T18:04:47.431Z,8.46
2024-04-24T18:07:14.169Z,8.43
2024-04-24T18:09:40.860Z,8.43
2024-04-24T18:12:09.101Z,8.44
2024-04-24T18:14:35.924Z,8.44
2024-04-24T18:17:03.135Z,8.44
2024-04-24T18:19:29.933Z,8.44
2024-04-24T18:21:56.656Z,8.42
2024-04-24T18:24:25.250Z,8.41
2024-04-24T18:26:51.989Z,8.39
2024-04-24T18:29:18.954Z,8.38
2024-04-24T18:31:46.308Z,8.37
2024-04-24T18:34:15.484Z,8.38
2024-04-24T18:36:43.005Z,8.38
2024-04-24T18:39:10.023Z,8.37
2024-04-24T18:41:36.940Z,8.36
2024-04-24T18:44:04.175Z,8.34
2024-04-24T18:46:31.199Z,8.35
2024-04-24T18:48:58.518Z,8.35
2024-04-24T18:51:25.561Z,8.34
2024-04-24T18:53:52.402Z,8.34
2024-04-24T18:56:19.320Z,8.34
2024-04-24T18:58:46.188Z,8.33
2024-04-24T19:01:13.050Z,8.32
2024-04-24T19:03:39.998Z,8.32
2024-04-24T19:06:07.690Z,8.32
2024-04-24T19:08:34.666Z,8.31
2024-04-24T19:11:01.734Z,8.32
2024-04-24T19:13:28.972Z,8.31
2024-04-24T19:15:55.693Z,8.30
2024-04-24T19:18:22.805Z,8.30
2024-04-24T19:20:49.746Z,8.29
2024-04-24T19:23:16.649Z,8.29
2024-04-24T19:25:43.335Z,8.26
2024-04-24T19:28:10.764Z,8.23
2024-04-24T19:30:37.522Z,8.24
2024-04-24T19:33:04.540Z,8.22
2024-04-24T19:35:31.522Z,8.21
2024-04-24T19:37:59.307Z,8.18
2024-04-24T19:40:29.520Z,8.17
2024-04-24T19:42:56.352Z,8.15
2024-04-24T19:45:23.691Z,8.12
2024-04-24T19:47:50.522Z,8.10
2024-04-24T19:50:18.320Z,8.06
2024-04-24T19:52:45.117Z,8.02
2024-04-24T19:55:12.803Z,7.99
2024-04-24T19:57:39.794Z,7.96
2024-04-24T20:00:08.000Z,7.94
2024-04-24T20:02:37.199Z,7.93
2024-04-24T20:05:04.566Z,7.92
2024-04-24T20:07:32.853Z,7.90
2024-04-24T20:09:59.653Z,7.87
2024-04-24T20:12:26.385Z,7.86
2024-04-24T20:14:53.567Z,7.85
2024-04-24T20:17:22.738Z,7.82
2024-04-24T20:20:03.814Z,7.80
2024-04-24T20:22:31.293Z,7.78
2024-04-24T20:24:57.994Z,7.74
2024-04-24T20:27:24.800Z,7.73
2024-04-24T20:29:51.681Z,7.71
2024-04-24T20:32:18.401Z,7.72
2024-04-24T20:34:45.247Z,7.71
2024-04-24T20:37:12.052Z,7.70
2024-04-24T20:39:40.476Z,7.70
2024-04-24T20:42:10.776Z,7.70
2024-04-24T20:44:38.417Z,7.70
2024-04-24T20:47:05.316Z,7.69
2024-04-24T20:49:32.083Z,7.68
2024-04-24T20:51:58.767Z,7.67
2024-04-24T20:54:25.721Z,7.66
2024-04-24T20:56:52.476Z,7.65
2024-04-24T20:59:19.322Z,7.67
2024-04-24T21:01:46.011Z,7.66
2024-04-24T21:04:12.694Z,7.68
2024-04-24T21:06:39.853Z,7.67
2024-04-24T21:09:08.382Z,7.66
2024-04-24T21:11:35.169Z,7.70
2024-04-24T21:14:02.376Z,7.71
2024-04-24T21:16:29.119Z,7.72
2024-04-24T21:18:56.053Z,7.72
2024-04-24T21:21:23.371Z,7.72
2024-04-24T21:23:51.872Z,7.72
2024-04-24T21:26:19.065Z,7.73
2024-04-24T21:28:46.072Z,7.71
2024-04-24T21:31:12.866Z,7.70
2024-04-24T21:33:39.590Z,7.70
2024-04-24T21:36:07.143Z,7.69
2024-04-24T21:38:36.052Z,7.67
2024-04-24T21:41:04.961Z,7.65
2024-04-24T21:43:31.795Z,7.63
2024-04-24T21:46:04.735Z,7.61
2024-04-24T21:48:31.485Z,7.58
2024-04-24T21:50:58.135Z,7.55
2024-04-24T21:53:24.887Z,7.51
2024-04-24T21:55:51.672Z,7.48
2024-04-24T21:58:18.658Z,7.45
2024-04-24T22:00:45.433Z,7.42
2024-04-24T22:03:12.334Z,7.42
2024-04-24T22:05:39.182Z,7.40
2024-04-24T22:08:06.394Z,7.37
2024-04-24T22:10:33.357Z,7.38
2024-04-24T22:13:02.011Z,7.36
2024-04-24T22:15:31.451Z,7.36
2024-04-24T22:18:01.198Z,7.35
2024-04-24T22:20:28.067Z,7.34
2024-04-24T22:22:55.324Z,7.35
2024-04-24T22:25:23.198Z,7.34
2024-04-24T22:27:49.990Z,7.31
2024-04-24T22:30:17.064Z,7.30
2024-04-24T22:32:44.024Z,7.28
2024-04-24T22:35:11.080Z,7.27
2024-04-24T22:37:37.877Z,7.26
2024-04-24T22:40:05.215Z,7.27
2024-04-24T22:42:32.029Z,7.27
2024-04-24T22:44:58.723Z,7.28
2024-04-24T22:47:25.636Z,7.26
2024-04-24T22:49:52.389Z,7.25
2024-04-24T22:52:19.046Z,7.24
2024-04-24T22:54:46.264Z,7.23
2024-04-24T22:57:12.958Z,7.22
2024-04-24T22:59:39.664Z,7.20
2024-04-24T23:02:06.815Z,7.17
2024-04-24T23:04:33.623Z,7.13
2024-04-24T23:07:00.363Z,7.09
2024-04-24T23:09:27.360Z,7.04
2024-04-24T23:11:54.098Z,7.00
2024-04-24T23:14:25.967Z,6.95
2024-04-24T23:16:52.724Z,6.91
2024-04-24T23:19:20.931Z,6.86
2024-04-24T23:21:47.680Z,6.82
2024-04-24T23:24:14.618Z,6.79
2024-04-24T23:26:45.934Z,6.74
2024-04-24T23:29:13.323Z,6.73
2024-04-24T23:31:40.234Z,6.70
2024-04-24T23:34:07.312Z,6.69
2024-04-24T23:36:33.941Z,6.67
2024-04-24T23:39:00.690Z,6.65
2024-04-24T23:41:27.462Z,6.65
2024-04-24T23:43:54.537Z,6.64
2024-04-24T23:46:21.565Z,6.63
2024-04-24T23:48:49.071Z,6.62
2024-04-24T23:51:15.787Z,6.62
2024-04-24T23:53:42.562Z,6.61
2024-04-24T23:56:10.497Z,6.60
2024-04-24T23:58:37.236Z,6.60
